Terminal Aerodrome Forecast
Issued by NWS

Home | Current Version | Previous Version | Text Only | Print | Product List | Glossary On
Versions: 1 2 3 4 5 6 7 8 9 10 11 12 13 14 15 16 17 18 19
116
FTUS41 KCAR 291240 AAA
TAFPQI
TAF AMD
KPQI 291240Z 2913/3012 VRB03KT P6SM FEW008 SCT025
     FM291600 VRB03KT P6SM BKN040=

USA.gov is the U.S. government's official web portal to all federal, state and local government web resources and services.